createdAt,value
2019-04-25T00:00:17.427Z,0.00
2019-04-25T00:01:17.348Z,0.00
2019-04-25T00:02:17.279Z,0.00
2019-04-25T00:03:17.194Z,0.00
2019-04-25T00:04:17.119Z,0.00
2019-04-25T00:05:17.040Z,0.00
2019-04-25T00:06:16.959Z,0.00
2019-04-25T00:07:16.881Z,0.00
2019-04-25T00:08:16.805Z,0.00
2019-04-25T00:09:16.728Z,0.00
2019-04-25T00:10:16.657Z,0.00
2019-04-25T00:11:16.568Z,0.00
2019-04-25T00:12:16.495Z,0.00
2019-04-25T00:13:16.414Z,0.00
2019-04-25T00:14:16.333Z,0.00
2019-04-25T00:15:16.259Z,0.00
2019-04-25T00:16:16.185Z,0.00
2019-04-25T00:17:16.106Z,0.00
2019-04-25T00:18:16.023Z,0.00
2019-04-25T00:19:15.950Z,0.00
2019-04-25T00:20:15.871Z,0.00
2019-04-25T00:21:15.799Z,0.00
2019-04-25T00:22:15.714Z,0.00
2019-04-25T00:23:15.639Z,0.00
2019-04-25T00:24:15.570Z,0.00
2019-04-25T00:25:17.863Z,0.00
2019-04-25T00:26:15.423Z,0.00
2019-04-25T00:27:15.324Z,0.00
2019-04-25T00:28:15.253Z,0.00
2019-04-25T00:29:15.171Z,0.00
2019-04-25T00:30:15.109Z,0.00
2019-04-25T00:31:15.025Z,0.00
2019-04-25T00:32:14.951Z,0.00
2019-04-25T00:33:14.863Z,0.00
2019-04-25T00:34:14.790Z,0.00
2019-04-25T00:35:14.708Z,0.00
2019-04-25T00:36:14.627Z,0.00
2019-04-25T00:37:14.553Z,0.00
2019-04-25T00:38:14.478Z,0.00
2019-04-25T00:39:14.397Z,0.00
2019-04-25T00:40:14.320Z,0.00
2019-04-25T00:41:14.243Z,0.00
2019-04-25T00:42:14.170Z,0.00
2019-04-25T00:43:14.085Z,0.00
2019-04-25T00:44:14.007Z,0.00
2019-04-25T00:45:14.156Z,0.00
2019-04-25T00:46:13.856Z,0.00
2019-04-25T00:47:13.776Z,0.00
2019-04-25T00:48:13.690Z,0.00
2019-04-25T00:49:13.637Z,0.00
2019-04-25T00:50:13.541Z,0.00
2019-04-25T00:51:13.464Z,0.00
2019-04-25T00:52:13.389Z,0.00
2019-04-25T00:53:13.306Z,0.00
2019-04-25T00:54:13.230Z,0.00
2019-04-25T00:55:16.921Z,0.00
2019-04-25T00:56:13.073Z,0.00
2019-04-25T00:57:12.992Z,0.00
2019-04-25T00:58:12.923Z,0.00
2019-04-25T00:59:14.015Z,0.00
2019-04-25T01:00:12.762Z,0.00
2019-04-25T01:01:12.687Z,0.00
2019-04-25T01:02:12.606Z,0.00
2019-04-25T01:03:12.525Z,0.00
2019-04-25T01:04:12.448Z,0.00
2019-04-25T01:05:12.389Z,0.00
2019-04-25T01:06:12.290Z,0.00
2019-04-25T01:07:12.647Z,0.00
2019-04-25T01:08:12.137Z,0.00
2019-04-25T01:09:12.459Z,0.00
2019-04-25T01:10:11.981Z,0.00
2019-04-25T01:11:11.904Z,0.00
2019-04-25T01:12:11.833Z,0.00
2019-04-25T01:13:11.745Z,0.00
2019-04-25T01:14:11.938Z,0.00
2019-04-25T01:15:11.680Z,0.00
2019-04-25T01:16:12.019Z,0.00
2019-04-25T01:17:11.742Z,0.00
2019-04-25T01:18:12.281Z,0.00
2019-04-25T01:19:11.275Z,0.00
2019-04-25T01:20:11.195Z,0.00
2019-04-25T01:21:11.118Z,0.00
2019-04-25T01:22:11.042Z,0.00
2019-04-25T01:23:10.959Z,0.00
2019-04-25T01:24:10.884Z,0.00
2019-04-25T01:25:10.809Z,0.00
2019-04-25T01:26:10.724Z,0.00
2019-04-25T01:27:10.647Z,0.00
2019-04-25T01:28:10.571Z,0.00
2019-04-25T01:29:10.496Z,0.00
2019-04-25T01:30:10.413Z,0.00
2019-04-25T01:31:10.333Z,0.00
2019-04-25T01:32:10.257Z,0.00
2019-04-25T01:33:10.178Z,0.00
2019-04-25T01:34:10.101Z,0.00
2019-04-25T01:35:10.035Z,0.00
2019-04-25T01:36:09.943Z,0.00
2019-04-25T01:37:09.865Z,0.00
2019-04-25T01:38:09.790Z,0.00
2019-04-25T01:39:09.704Z,0.00
2019-04-25T01:40:09.630Z,0.00
2019-04-25T01:41:09.548Z,0.00
2019-04-25T01:42:09.481Z,0.00
2019-04-25T01:43:09.385Z,0.00
2019-04-25T01:44:09.309Z,0.00
2019-04-25T01:45:09.235Z,0.00
2019-04-25T01:46:09.158Z,0.00
2019-04-25T01:47:09.083Z,0.00
2019-04-25T01:48:09.021Z,0.00
2019-04-25T01:49:08.917Z,0.00
2019-04-25T01:50:08.834Z,0.00
2019-04-25T01:51:08.760Z,0.00
2019-04-25T01:52:08.681Z,0.00
2019-04-25T01:53:08.601Z,0.00
2019-04-25T01:54:08.530Z,0.00
2019-04-25T01:55:08.443Z,0.00
2019-04-25T01:56:08.363Z,0.00
2019-04-25T01:57:08.281Z,0.00
2019-04-25T01:58:08.205Z,0.00
2019-04-25T01:59:08.127Z,0.00
2019-04-25T02:00:08.050Z,0.00
2019-04-25T02:01:07.964Z,0.00
2019-04-25T02:02:07.890Z,0.00
2019-04-25T02:03:07.811Z,0.00
2019-04-25T02:04:07.732Z,0.00
2019-04-25T02:05:07.655Z,0.00
2019-04-25T02:06:07.571Z,0.00
2019-04-25T02:07:07.492Z,0.00
2019-04-25T02:08:07.412Z,0.00
2019-04-25T02:09:07.334Z,0.00
2019-04-25T02:10:07.276Z,0.00
2019-04-25T02:11:07.193Z,0.00
2019-04-25T02:12:07.091Z,0.00
2019-04-25T02:13:07.019Z,0.00
2019-04-25T02:14:06.938Z,0.00
2019-04-25T02:15:06.855Z,0.00
2019-04-25T02:16:06.776Z,0.00
2019-04-25T02:17:06.699Z,0.00
2019-04-25T02:18:06.644Z,0.00
2019-04-25T02:19:06.542Z,0.00
2019-04-25T02:20:06.460Z,0.00
2019-04-25T02:21:06.383Z,0.00
2019-04-25T02:22:06.298Z,0.00
2019-04-25T02:23:06.219Z,0.00
2019-04-25T02:24:06.142Z,0.00
2019-04-25T02:25:06.060Z,0.00
2019-04-25T02:26:15.656Z,0.00
2019-04-25T02:27:05.901Z,0.00
2019-04-25T02:28:05.845Z,0.00
2019-04-25T02:29:05.749Z,0.00
2019-04-25T02:30:06.980Z,0.00
2019-04-25T02:31:08.593Z,0.00
2019-04-25T02:32:08.914Z,0.00
2019-04-25T02:33:08.560Z,0.00
2019-04-25T02:34:08.384Z,0.00
2019-04-25T02:35:09.143Z,0.00
2019-04-25T02:36:08.667Z,0.00
2019-04-25T02:37:09.135Z,0.00
2019-04-25T02:38:08.660Z,0.00
2019-04-25T02:39:08.797Z,0.00
2019-04-25T02:40:07.913Z,0.00
2019-04-25T02:41:08.372Z,0.00
2019-04-25T02:42:07.938Z,0.00
2019-04-25T02:43:08.022Z,0.00
2019-04-25T02:44:09.415Z,0.00
2019-04-25T02:45:08.174Z,0.00
2019-04-25T02:46:07.408Z,0.00
2019-04-25T02:47:07.861Z,0.00
2019-04-25T02:48:05.691Z,0.00
2019-04-25T02:49:09.077Z,0.00
2019-04-25T02:50:07.546Z,0.00
2019-04-25T02:51:06.202Z,0.00
2019-04-25T02:52:08.516Z,0.00
2019-04-25T02:53:05.497Z,0.00
2019-04-25T02:54:06.778Z,0.00
2019-04-25T02:55:04.958Z,0.00
2019-04-25T02:56:07.965Z,0.00
2019-04-25T02:58:35.525Z,0.00
2019-04-25T02:59:36.982Z,0.00
2019-04-25T03:01:39.739Z,0.00
2019-04-25T03:02:39.647Z,0.00
2019-04-25T03:03:39.565Z,0.00
2019-04-25T03:04:39.483Z,0.00
2019-04-25T03:05:39.465Z,0.00
2019-04-25T03:06:39.341Z,0.00
2019-04-25T03:07:39.247Z,0.00
2019-04-25T03:08:39.163Z,0.00
2019-04-25T03:09:39.085Z,0.00
2019-04-25T03:10:39.006Z,0.00
2019-04-25T03:11:38.927Z,0.00
2019-04-25T03:12:38.849Z,0.00
2019-04-25T03:13:38.765Z,0.00
2019-04-25T03:14:38.693Z,0.00
2019-04-25T03:15:38.604Z,0.00
2019-04-25T03:16:38.522Z,0.00
2019-04-25T03:17:38.441Z,0.00
2019-04-25T03:18:38.458Z,0.00
2019-04-25T03:19:38.280Z,0.00
2019-04-25T03:20:38.202Z,0.00
2019-04-25T03:21:38.122Z,0.00
2019-04-25T03:22:38.046Z,0.00
2019-04-25T03:23:37.975Z,0.00
2019-04-25T03:24:37.882Z,0.00
2019-04-25T03:25:37.800Z,0.00
2019-04-25T03:26:40.532Z,0.00
2019-04-25T03:27:37.637Z,0.00
2019-04-25T03:28:37.581Z,0.00
2019-04-25T03:29:37.481Z,0.00
2019-04-25T03:30:37.400Z,0.00
2019-04-25T03:31:37.318Z,0.00
2019-04-25T03:32:37.261Z,0.00
2019-04-25T03:33:38.490Z,0.00
2019-04-25T03:34:37.078Z,0.00
2019-04-25T03:35:36.998Z,0.00
2019-04-25T03:36:36.917Z,0.00
2019-04-25T03:37:36.836Z,4.00
2019-04-25T03:38:36.757Z,4.00
2019-04-25T03:39:36.684Z,0.00
2019-04-25T03:40:36.601Z,4.00
2019-04-25T03:41:36.517Z,4.00
2019-04-25T03:42:36.436Z,4.00
2019-04-25T03:43:36.355Z,8.00
2019-04-25T03:44:36.276Z,8.00
2019-04-25T03:45:36.195Z,12.00
2019-04-25T03:46:36.113Z,12.00
2019-04-25T03:47:36.035Z,12.00
2019-04-25T03:48:37.085Z,16.00
2019-04-25T03:49:35.872Z,16.00
2019-04-25T03:50:35.797Z,20.00
2019-04-25T03:51:35.718Z,24.00
2019-04-25T03:52:35.634Z,24.00
2019-04-25T03:53:35.552Z,28.00
2019-04-25T03:54:35.471Z,32.00
2019-04-25T03:55:35.962Z,40.00
2019-04-25T03:56:35.311Z,44.00
2019-04-25T03:57:35.233Z,52.00
2019-04-25T03:58:35.153Z,56.00
2019-04-25T03:59:35.065Z,64.00
2019-04-25T04:00:36.457Z,72.00
2019-04-25T04:01:34.909Z,80.00
2019-04-25T04:02:34.830Z,92.00
2019-04-25T04:03:34.746Z,100.00
2019-04-25T04:04:34.667Z,112.00
2019-04-25T04:05:34.624Z,124.00
2019-04-25T04:06:34.509Z,136.00
2019-04-25T04:07:34.428Z,148.00
2019-04-25T04:08:35.728Z,164.00
2019-04-25T04:09:34.268Z,176.00
2019-04-25T04:10:34.186Z,188.00
2019-04-25T04:11:34.106Z,204.00
2019-04-25T04:12:35.528Z,220.00
2019-04-25T04:13:34.329Z,232.00
2019-04-25T04:14:33.967Z,248.00
2019-04-25T04:15:33.788Z,264.00
2019-04-25T04:16:34.289Z,280.00
2019-04-25T04:17:33.961Z,296.00
2019-04-25T04:18:33.979Z,312.00
2019-04-25T04:19:33.809Z,328.00
2019-04-25T04:20:33.632Z,348.00
2019-04-25T04:21:33.381Z,368.00
2019-04-25T04:22:34.112Z,392.00
2019-04-25T04:23:33.309Z,412.00
2019-04-25T04:24:34.181Z,428.00
2019-04-25T04:25:33.646Z,448.00
2019-04-25T04:26:33.243Z,468.00
2019-04-25T04:27:33.644Z,480.00
2019-04-25T04:28:33.736Z,492.00
2019-04-25T04:29:33.163Z,512.00
2019-04-25T04:30:33.946Z,540.00
2019-04-25T04:31:33.551Z,568.00
2019-04-25T04:32:34.003Z,596.00
2019-04-25T04:33:34.460Z,624.00
2019-04-25T04:34:33.754Z,648.00
2019-04-25T04:35:33.504Z,664.00
2019-04-25T04:36:33.751Z,676.00
2019-04-25T04:37:33.245Z,676.00
2019-04-25T04:38:32.013Z,676.00
2019-04-25T04:39:33.711Z,680.00
2019-04-25T04:40:31.776Z,696.00
2019-04-25T04:41:31.697Z,712.00
2019-04-25T04:42:31.619Z,724.00
2019-04-25T04:43:31.538Z,744.00
2019-04-25T04:44:31.456Z,764.00
2019-04-25T04:45:31.375Z,780.00
2019-04-25T04:46:31.302Z,792.00
2019-04-25T04:47:31.210Z,808.00
2019-04-25T04:48:31.135Z,828.00
2019-04-25T04:49:31.054Z,844.00
2019-04-25T04:50:30.976Z,864.00
2019-04-25T04:51:30.896Z,884.00
2019-04-25T04:52:30.822Z,912.00
2019-04-25T04:53:30.736Z,928.00
2019-04-25T04:54:30.656Z,936.00
2019-04-25T04:55:30.573Z,948.00
2019-04-25T04:56:30.498Z,944.00
2019-04-25T04:57:35.301Z,932.00
2019-04-25T04:58:30.335Z,928.00
2019-04-25T04:59:30.257Z,932.00
2019-04-25T05:00:30.176Z,936.00
2019-04-25T05:01:30.097Z,944.00
2019-04-25T05:02:30.017Z,952.00
2019-04-25T05:03:29.936Z,964.00
2019-04-25T05:04:29.853Z,960.00
2019-04-25T05:05:30.605Z,988.00
2019-04-25T05:06:29.696Z,1000.00
2019-04-25T05:07:29.616Z,888.00
2019-04-25T05:08:29.537Z,832.00
2019-04-25T05:09:29.456Z,824.00
2019-04-25T05:10:29.382Z,916.00
2019-04-25T05:11:29.295Z,992.00
2019-04-25T05:12:29.216Z,796.00
2019-04-25T05:13:29.140Z,772.00
2019-04-25T05:14:29.061Z,788.00
2019-04-25T05:15:28.978Z,800.00
2019-04-25T05:16:28.894Z,824.00
2019-04-25T05:17:28.820Z,900.00
2019-04-25T05:18:36.992Z,1124.00
2019-04-25T05:19:28.656Z,1184.00
2019-04-25T05:20:28.576Z,1188.00
2019-04-25T05:21:28.495Z,1152.00
2019-04-25T05:22:28.413Z,1184.00
2019-04-25T05:23:28.334Z,1264.00
2019-04-25T05:24:28.253Z,1248.00
2019-04-25T05:25:28.174Z,1256.00
2019-04-25T05:26:28.091Z,1276.00
2019-04-25T05:27:35.747Z,1296.00
2019-04-25T05:28:27.936Z,1296.00
2019-04-25T05:29:27.854Z,1220.00
2019-04-25T05:30:27.771Z,1328.00
2019-04-25T05:31:27.690Z,1336.00
2019-04-25T05:32:27.648Z,1340.00
2019-04-25T05:33:27.534Z,1332.00
2019-04-25T05:34:27.457Z,1288.00
2019-04-25T05:35:27.372Z,1348.00
2019-04-25T05:36:27.290Z,1324.00
2019-04-25T05:37:27.212Z,1340.00
2019-04-25T05:38:27.144Z,1328.00
2019-04-25T05:39:27.049Z,1380.00
2019-04-25T05:40:26.969Z,1460.00
2019-04-25T05:41:26.898Z,1432.00
2019-04-25T05:42:26.814Z,1436.00
2019-04-25T05:43:26.730Z,1432.00
2019-04-25T05:44:27.473Z,1440.00
2019-04-25T05:45:26.574Z,1444.00
2019-04-25T05:46:26.492Z,1448.00
2019-04-25T05:47:27.202Z,1488.00
2019-04-25T05:48:26.427Z,1504.00
2019-04-25T05:49:26.386Z,1516.00
2019-04-25T05:50:26.309Z,1512.00
2019-04-25T05:51:26.092Z,1512.00
2019-04-25T05:52:26.288Z,1464.00
2019-04-25T05:53:26.296Z,1508.00
2019-04-25T05:54:25.853Z,1516.00
2019-04-25T05:55:26.582Z,1540.00
2019-04-25T05:56:26.978Z,1560.00
2019-04-25T05:57:26.082Z,1568.00
2019-04-25T05:58:26.123Z,1584.00
2019-04-25T05:59:26.689Z,1592.00
2019-04-25T06:00:26.057Z,1596.00
2019-04-25T06:01:28.953Z,1604.00
2019-04-25T06:02:25.755Z,1616.00
2019-04-25T06:03:26.273Z,1576.00
2019-04-25T06:04:25.861Z,1584.00
2019-04-25T06:05:26.462Z,1588.00
2019-04-25T06:06:24.899Z,1576.00
2019-04-25T06:07:26.657Z,1572.00
2019-04-25T06:08:25.843Z,1580.00
2019-04-25T06:09:25.109Z,1568.00
2019-04-25T06:10:25.699Z,1612.00
2019-04-25T06:11:25.098Z,1620.00
2019-04-25T06:12:24.724Z,1592.00
2019-04-25T06:13:26.435Z,1584.00
2019-04-25T06:14:25.394Z,1584.00
2019-04-25T06:15:25.017Z,1596.00
2019-04-25T06:16:27.059Z,1600.00
2019-04-25T06:17:24.825Z,1592.00
2019-04-25T06:18:24.826Z,1592.00
2019-04-25T06:19:25.237Z,1592.00
2019-04-25T06:20:24.689Z,1588.00
2019-04-25T06:21:24.565Z,1604.00
2019-04-25T06:22:24.679Z,1608.00
2019-04-25T06:23:24.585Z,1612.00
2019-04-25T06:24:24.837Z,1604.00
2019-04-25T06:25:27.142Z,1612.00
2019-04-25T06:26:33.279Z,1616.00
2019-04-25T06:27:24.332Z,1628.00
2019-04-25T06:28:23.984Z,1632.00
2019-04-25T06:29:23.929Z,1628.00
2019-04-25T06:30:24.576Z,1632.00
2019-04-25T06:31:23.836Z,1636.00
2019-04-25T06:32:24.657Z,1640.00
2019-04-25T06:33:24.389Z,1640.00
2019-04-25T06:34:24.886Z,1644.00
2019-04-25T06:35:24.770Z,1648.00
2019-04-25T06:36:24.287Z,1644.00
2019-04-25T06:37:24.265Z,1660.00
2019-04-25T06:38:24.851Z,1672.00
2019-04-25T06:39:22.276Z,1680.00
2019-04-25T06:40:23.915Z,1628.00
2019-04-25T06:41:22.118Z,1632.00
2019-04-25T06:42:23.047Z,1636.00
2019-04-25T06:43:24.241Z,1632.00
2019-04-25T06:44:24.052Z,1640.00
2019-04-25T06:45:22.813Z,1640.00
2019-04-25T06:46:22.965Z,1632.00
2019-04-25T06:47:22.512Z,1624.00
2019-04-25T06:48:22.578Z,1640.00
2019-04-25T06:49:24.130Z,1636.00
2019-04-25T06:50:21.915Z,1632.00
2019-04-25T06:51:21.487Z,1628.00
2019-04-25T06:52:21.606Z,1640.00
2019-04-25T06:53:21.656Z,1640.00
2019-04-25T06:54:21.975Z,1644.00
2019-04-25T06:55:22.863Z,1644.00
2019-04-25T06:56:21.187Z,1636.00
2019-04-25T06:57:21.995Z,1640.00
2019-04-25T06:58:21.421Z,1644.00
2019-04-25T06:59:23.000Z,1644.00
2019-04-25T07:00:20.624Z,1652.00
2019-04-25T07:01:20.544Z,1644.00
2019-04-25T07:02:20.464Z,1648.00
2019-04-25T07:03:20.386Z,1644.00
2019-04-25T07:04:20.309Z,1636.00
2019-04-25T07:05:30.726Z,1624.00
2019-04-25T07:06:20.150Z,1648.00
2019-04-25T07:07:20.070Z,1640.00
2019-04-25T07:08:19.992Z,1628.00
2019-04-25T07:09:19.916Z,1628.00
2019-04-25T07:10:19.839Z,1636.00
2019-04-25T07:11:19.767Z,1628.00
2019-04-25T07:12:19.680Z,1628.00
2019-04-25T07:13:19.601Z,1636.00
2019-04-25T07:14:19.522Z,1652.00
2019-04-25T07:15:19.446Z,1652.00
2019-04-25T07:16:19.367Z,1652.00
2019-04-25T07:17:19.288Z,1652.00
2019-04-25T07:18:19.208Z,1656.00
2019-04-25T07:19:19.131Z,1660.00
2019-04-25T07:20:19.051Z,1660.00
2019-04-25T07:21:18.974Z,1716.00
2019-04-25T07:22:18.903Z,1644.00
2019-04-25T07:23:18.818Z,1664.00
2019-04-25T07:24:18.742Z,1636.00
2019-04-25T07:25:18.661Z,1660.00
2019-04-25T07:26:18.588Z,1652.00
2019-04-25T07:27:18.503Z,1660.00
2019-04-25T07:28:24.113Z,1660.00
2019-04-25T07:29:18.348Z,1668.00
2019-04-25T07:30:27.212Z,1664.00
2019-04-25T07:31:18.191Z,1676.00
2019-04-25T07:32:18.120Z,1680.00
2019-04-25T07:33:18.035Z,1676.00
2019-04-25T07:34:17.957Z,1676.00
2019-04-25T07:35:17.881Z,1680.00
2019-04-25T07:36:17.809Z,1680.00
2019-04-25T07:37:17.731Z,1680.00
2019-04-25T07:38:17.645Z,1676.00
2019-04-25T07:39:17.568Z,1676.00
2019-04-25T07:40:17.491Z,1676.00
2019-04-25T07:41:17.417Z,1676.00
2019-04-25T07:42:17.342Z,1676.00
2019-04-25T07:43:17.254Z,1680.00
2019-04-25T07:44:17.298Z,1684.00
2019-04-25T07:45:17.180Z,1680.00
2019-04-25T07:46:17.027Z,1684.00
2019-04-25T07:47:16.942Z,1684.00
2019-04-25T07:48:16.873Z,1684.00
2019-04-25T07:49:16.803Z,1684.00
2019-04-25T07:50:16.711Z,1688.00
2019-04-25T07:51:16.695Z,1688.00
2019-04-25T07:52:16.556Z,1688.00
2019-04-25T07:53:16.481Z,1676.00
2019-04-25T07:54:16.400Z,1652.00
2019-04-25T07:55:16.395Z,1660.00
2019-04-25T07:56:16.238Z,1660.00
2019-04-25T07:57:16.165Z,1664.00
2019-04-25T07:58:16.092Z,1720.00
2019-04-25T07:59:16.011Z,1680.00
2019-04-25T08:00:15.940Z,1680.00
2019-04-25T08:01:15.859Z,1664.00
2019-04-25T08:02:15.780Z,1708.00
2019-04-25T08:03:15.697Z,1660.00
2019-04-25T08:04:15.623Z,1656.00
2019-04-25T08:05:15.546Z,1668.00
2019-04-25T08:06:15.472Z,1660.00
2019-04-25T08:07:15.390Z,1688.00
2019-04-25T08:08:15.311Z,1676.00
2019-04-25T08:09:15.748Z,1668.00
2019-04-25T08:10:15.158Z,1732.00
2019-04-25T08:11:15.079Z,1656.00
2019-04-25T08:12:15.004Z,1656.00
2019-04-25T08:13:14.922Z,1656.00
2019-04-25T08:14:14.849Z,1668.00
2019-04-25T08:15:14.775Z,1684.00
2019-04-25T08:16:14.707Z,1692.00
2019-04-25T08:17:14.615Z,1700.00
2019-04-25T08:18:14.536Z,1708.00
2019-04-25T08:19:14.471Z,1716.00
2019-04-25T08:20:15.245Z,1724.00
2019-04-25T08:21:15.330Z,1724.00
2019-04-25T08:22:14.225Z,1784.00
2019-04-25T08:23:14.162Z,1720.00
2019-04-25T08:24:14.075Z,1728.00
2019-04-25T08:25:13.995Z,1728.00
2019-04-25T08:26:14.272Z,1708.00
2019-04-25T08:27:13.855Z,1708.00
2019-04-25T08:28:13.896Z,1712.00
2019-04-25T08:29:13.686Z,1712.00
2019-04-25T08:30:14.014Z,1716.00
2019-04-25T08:31:13.676Z,1724.00
2019-04-25T08:32:14.237Z,1740.00
2019-04-25T08:33:13.867Z,1740.00
2019-04-25T08:34:14.543Z,1736.00
2019-04-25T08:35:13.903Z,1716.00
2019-04-25T08:36:13.722Z,1732.00
2019-04-25T08:37:19.124Z,1736.00
2019-04-25T08:38:13.784Z,1764.00
2019-04-25T08:39:14.532Z,1780.00
2019-04-25T08:40:13.686Z,1768.00
2019-04-25T08:41:14.056Z,1748.00
2019-04-25T08:42:13.023Z,1752.00
2019-04-25T08:43:12.604Z,1748.00
2019-04-25T08:44:14.074Z,1756.00
2019-04-25T08:45:13.332Z,1760.00
2019-04-25T08:46:13.991Z,1760.00
2019-04-25T08:47:12.302Z,1752.00
2019-04-25T08:48:13.625Z,1764.00
2019-04-25T08:49:13.989Z,1764.00
2019-04-25T08:50:26.031Z,1768.00
2019-04-25T08:51:13.463Z,1768.00
2019-04-25T08:52:13.268Z,1764.00
2019-04-25T08:53:11.840Z,1768.00
2019-04-25T08:54:13.515Z,1776.00
2019-04-25T08:55:11.680Z,1776.00
2019-04-25T08:56:11.614Z,1760.00
2019-04-25T08:57:11.529Z,1764.00
2019-04-25T08:58:11.453Z,1768.00
2019-04-25T08:59:11.374Z,1776.00
2019-04-25T09:00:11.300Z,1776.00
2019-04-25T09:01:11.238Z,1780.00
2019-04-25T09:02:11.140Z,1784.00
2019-04-25T09:03:11.072Z,1784.00
2019-04-25T09:04:10.992Z,1784.00
2019-04-25T09:05:10.917Z,1792.00
2019-04-25T09:06:10.842Z,1800.00
2019-04-25T09:07:10.761Z,1796.00
2019-04-25T09:08:10.686Z,1804.00
2019-04-25T09:09:10.613Z,1808.00
2019-04-25T09:10:10.531Z,1816.00
2019-04-25T09:11:10.454Z,1828.00
2019-04-25T09:12:10.379Z,1828.00
2019-04-25T09:13:10.304Z,1832.00
2019-04-25T09:14:10.226Z,1836.00
2019-04-25T09:15:10.147Z,1840.00
2019-04-25T09:16:10.070Z,1840.00
2019-04-25T09:17:09.998Z,1844.00
2019-04-25T09:18:09.921Z,1848.00
2019-04-25T09:19:09.843Z,1852.00
2019-04-25T09:20:09.768Z,1860.00
2019-04-25T09:21:09.689Z,1860.00
2019-04-25T09:22:09.615Z,1872.00
2019-04-25T09:23:09.542Z,1896.00
2019-04-25T09:24:09.460Z,1912.00
2019-04-25T09:25:09.386Z,1904.00
2019-04-25T09:26:09.325Z,1924.00
2019-04-25T09:27:09.231Z,1912.00
2019-04-25T09:28:09.156Z,1924.00
2019-04-25T09:29:18.829Z,1924.00
2019-04-25T09:30:09.005Z,1928.00
2019-04-25T09:31:08.933Z,1944.00
2019-04-25T09:32:08.850Z,1936.00
2019-04-25T09:33:08.775Z,1920.00
2019-04-25T09:34:08.704Z,1944.00
2019-04-25T09:35:08.630Z,1992.00
2019-04-25T09:36:08.545Z,2000.00
2019-04-25T09:37:08.471Z,1960.00
2019-04-25T09:38:08.394Z,1980.00
2019-04-25T09:39:08.318Z,2000.00
2019-04-25T09:40:08.243Z,2028.00
2019-04-25T09:41:08.168Z,2056.00
2019-04-25T09:42:08.092Z,2080.00
2019-04-25T09:43:08.010Z,2100.00
2019-04-25T09:44:07.939Z,2136.00
2019-04-25T09:45:07.867Z,2124.00
2019-04-25T09:46:07.790Z,2152.00
2019-04-25T09:47:07.713Z,2148.00
2019-04-25T09:48:07.636Z,2148.00
2019-04-25T09:49:07.561Z,2148.00
2019-04-25T09:50:07.485Z,2120.00
2019-04-25T09:51:07.409Z,2120.00
2019-04-25T09:52:07.332Z,2124.00
2019-04-25T09:53:07.256Z,2148.00
2019-04-25T09:54:07.188Z,2188.00
2019-04-25T09:55:07.104Z,2228.00
2019-04-25T09:56:07.030Z,2292.00
2019-04-25T09:57:06.954Z,2336.00
2019-04-25T09:58:06.878Z,2388.00
2019-04-25T09:59:06.801Z,2412.00
2019-04-25T10:00:06.735Z,2412.00
2019-04-25T10:01:06.652Z,2388.00
2019-04-25T10:02:06.579Z,2392.00
2019-04-25T10:03:06.499Z,2376.00
2019-04-25T10:04:06.421Z,2328.00
2019-04-25T10:05:06.354Z,2284.00
2019-04-25T10:06:06.276Z,2288.00
2019-04-25T10:07:06.204Z,2312.00
2019-04-25T10:08:06.123Z,2332.00
2019-04-25T10:09:06.045Z,2356.00
2019-04-25T10:10:05.976Z,2388.00
2019-04-25T10:11:05.902Z,2436.00
2019-04-25T10:12:05.821Z,2480.00
2019-04-25T10:13:06.570Z,2520.00
2019-04-25T10:14:05.672Z,2580.00
2019-04-25T10:15:05.601Z,2636.00
2019-04-25T10:16:05.523Z,2684.00
2019-04-25T10:17:05.448Z,2716.00
2019-04-25T10:18:05.371Z,2740.00
2019-04-25T10:19:05.303Z,2760.00
2019-04-25T10:20:05.223Z,2840.00
2019-04-25T10:21:05.152Z,2892.00
2019-04-25T10:22:05.070Z,2940.00
2019-04-25T10:23:05.092Z,2992.00
2019-04-25T10:24:04.918Z,3048.00
2019-04-25T10:25:04.846Z,3088.00
2019-04-25T10:26:04.774Z,3108.00
2019-04-25T10:27:04.697Z,3140.00
2019-04-25T10:28:04.627Z,3172.00
2019-04-25T10:29:04.546Z,3236.00
2019-04-25T10:30:16.053Z,3308.00
2019-04-25T10:31:04.398Z,3404.00
2019-04-25T10:32:04.414Z,3584.00
2019-04-25T10:33:04.249Z,3792.00
2019-04-25T10:34:04.173Z,4020.00
2019-04-25T10:35:04.100Z,4284.00
2019-04-25T10:36:04.231Z,4576.00
2019-04-25T10:37:03.952Z,4892.00
2019-04-25T10:38:03.874Z,5172.00
2019-04-25T10:39:08.668Z,5424.00
2019-04-25T10:40:04.349Z,5364.00
2019-04-25T10:41:04.288Z,5392.00
2019-04-25T10:42:03.715Z,5604.00
2019-04-25T10:43:04.015Z,5708.00
2019-04-25T10:44:03.429Z,5384.00
2019-04-25T10:45:04.180Z,5248.00
2019-04-25T10:46:03.453Z,5084.00
2019-04-25T10:47:03.209Z,5092.00
2019-04-25T10:48:04.290Z,5036.00
2019-04-25T10:49:04.374Z,5020.00
2019-04-25T10:50:03.823Z,5008.00
2019-04-25T10:51:04.181Z,4780.00
2019-04-25T10:52:02.851Z,4964.00
2019-04-25T10:53:04.056Z,5100.00
2019-04-25T10:54:04.170Z,5292.00
2019-04-25T10:55:04.206Z,5552.00
2019-04-25T10:56:05.496Z,5756.00
2019-04-25T10:57:02.472Z,6012.00
2019-04-25T10:58:03.876Z,6132.00
2019-04-25T10:59:04.136Z,6400.00
2019-04-25T11:00:07.488Z,6528.00
2019-04-25T11:01:02.176Z,6648.00
2019-04-25T11:02:03.943Z,6852.00
2019-04-25T11:03:03.875Z,7152.00
2019-04-25T11:04:01.958Z,7432.00
2019-04-25T11:05:03.413Z,7772.00
2019-04-25T11:06:01.812Z,8072.00
2019-04-25T11:07:03.613Z,7828.00
2019-04-25T11:08:01.663Z,7436.00
2019-04-25T11:09:03.394Z,7352.00
2019-04-25T11:10:03.412Z,7216.00
2019-04-25T11:11:01.467Z,7468.00
2019-04-25T11:12:01.375Z,7628.00
2019-04-25T11:13:01.311Z,7756.00
2019-04-25T11:14:01.230Z,8336.00
2019-04-25T11:15:01.155Z,8348.00
2019-04-25T11:16:01.084Z,8680.00
2019-04-25T11:17:01.729Z,9056.00
2019-04-25T11:18:00.940Z,9192.00
2019-04-25T11:19:00.866Z,9640.00
2019-04-25T11:20:00.795Z,10140.00
2019-04-25T11:21:00.717Z,10292.00
2019-04-25T11:22:00.649Z,10300.00
2019-04-25T11:23:00.577Z,10080.00
2019-04-25T11:24:00.505Z,9880.00
2019-04-25T11:25:00.433Z,9192.00
2019-04-25T11:26:00.370Z,8600.00
2019-04-25T11:27:00.291Z,8744.00
2019-04-25T11:28:00.221Z,8276.00
2019-04-25T11:29:00.147Z,8324.00
2019-04-25T11:30:09.235Z,8400.00
2019-04-25T11:31:00.005Z,8748.00
2019-04-25T11:31:59.933Z,8500.00
2019-04-25T11:32:59.868Z,8668.00
2019-04-25T11:33:59.795Z,8816.00
2019-04-25T11:34:59.732Z,9276.00
2019-04-25T11:35:59.649Z,28512.00
2019-04-25T11:36:59.580Z,67520.00
2019-04-25T11:37:59.509Z,90304.00
2019-04-25T11:38:59.439Z,88864.00
2019-04-25T11:39:59.370Z,83040.00
2019-04-25T11:40:59.308Z,80256.00
2019-04-25T11:41:59.237Z,87200.00
2019-04-25T11:42:59.169Z,86368.00
2019-04-25T11:44:00.439Z,79648.00
2019-04-25T11:44:59.037Z,88256.00
2019-04-25T11:45:58.976Z,72544.00
2019-04-25T11:46:58.918Z,78592.00
2019-04-25T11:47:58.847Z,81536.00
2019-04-25T11:48:58.783Z,72928.00
2019-04-25T11:49:58.718Z,74304.00
2019-04-25T11:50:58.659Z,63424.00
2019-04-25T11:51:58.592Z,80672.00
2019-04-25T11:52:58.885Z,80832.00
2019-04-25T11:53:58.469Z,87392.00
2019-04-25T11:54:58.408Z,95616.00
2019-04-25T11:55:58.354Z,95008.00
2019-04-25T11:56:58.293Z,55552.00
2019-04-25T11:57:58.225Z,79424.00
2019-04-25T11:58:58.170Z,68960.00
2019-04-25T11:59:58.112Z,71040.00
2019-04-25T12:00:58.128Z,49568.00
2019-04-25T12:01:57.993Z,58656.00
2019-04-25T12:02:57.932Z,83456.00
2019-04-25T12:03:57.874Z,45792.00
2019-04-25T12:04:57.818Z,19648.00
2019-04-25T12:05:57.763Z,19648.00
2019-04-25T12:06:57.695Z,13252.00
2019-04-25T12:07:57.637Z,14604.00
2019-04-25T12:08:57.571Z,16416.00
2019-04-25T12:09:57.516Z,15980.00
2019-04-25T12:10:57.453Z,18400.00
2019-04-25T12:11:57.386Z,23584.00
2019-04-25T12:12:57.870Z,22912.00
2019-04-25T12:13:57.269Z,24736.00
2019-04-25T12:14:57.206Z,31264.00
2019-04-25T12:15:57.145Z,25152.00
2019-04-25T12:16:57.080Z,22400.00
2019-04-25T12:17:57.574Z,19456.00
2019-04-25T12:18:56.958Z,19776.00
2019-04-25T12:19:57.497Z,24416.00
2019-04-25T12:20:57.970Z,19680.00
2019-04-25T12:21:58.269Z,23328.00
2019-04-25T12:23:06.000Z,28032.00
2019-04-25T12:23:56.630Z,34752.00
2019-04-25T12:24:56.558Z,35392.00
2019-04-25T12:25:56.498Z,24736.00
2019-04-25T12:26:56.435Z,27968.00
2019-04-25T12:27:56.363Z,35808.00
2019-04-25T12:28:56.580Z,37792.00